Haddonfield, New Jersey
Current Conditions -  °F | °C
As of 11:54 AM on Thursday 27 Nov 2014 (Local Time) from KVAY Reporting Station
Overcast Overcast  
Wind Chill: 32°   Ceiling: 1900
Heat Index: 38°   Visibility: 10mi
Dew Point: 31°   Wind: 8mph
Humidity: 76%   Direction: 290°WNW
Pressure: 30.01"   Gusts: NA
Location:  39.9°N, 75.03°W
Report Text: KVAY 271654Z AUTO 29007KT 10SM OVC019 03/M01 A3001 RMK AO2 SLP163 T00331006
Loading
Personal Weather Stations






























Interactive Weather Map New forecast layout! Learn more

10-Day Weather Forecast

Advertisements
Track Severe Weather on mobile